sensor_id;sensor_type;location;lat;lon;timestamp;pressure;altitude;pressure_sealevel;temperature;humidity
86138;BME280;76796;49.056;15.810;2024-03-17T00:00:04;97169.66;;;7.96;nan
86138;BME280;76796;49.056;15.810;2024-03-17T00:02:32;97174.19;;;7.94;nan
86138;BME280;76796;49.056;15.810;2024-03-17T00:04:57;97172.03;;;7.87;nan
86138;BME280;76796;49.056;15.810;2024-03-17T00:07:23;97171.09;;;7.88;nan
86138;BME280;76796;49.056;15.810;2024-03-17T00:10:01;97172.88;;;7.87;nan
86138;BME280;76796;49.056;15.810;2024-03-17T00:12:31;97178.16;;;7.87;nan
86138;BME280;76796;49.056;15.810;2024-03-17T00:14:57;97181.44;;;7.78;nan
86138;BME280;76796;49.056;15.810;2024-03-17T00:17:23;97170.94;;;7.64;nan
86138;BME280;76796;49.056;15.810;2024-03-17T00:19:48;97175.13;;;7.53;nan
86138;BME280;76796;49.056;15.810;2024-03-17T00:22:14;97183.03;;;7.53;nan
86138;BME280;76796;49.056;15.810;2024-03-17T00:24:44;97189.44;;;7.49;nan
86138;BME280;76796;49.056;15.810;2024-03-17T00:27:16;97203.78;;;7.45;nan
86138;BME280;76796;49.056;15.810;2024-03-17T00:29:42;97199.94;;;7.37;nan
86138;BME280;76796;49.056;15.810;2024-03-17T00:32:08;97197.59;;;7.32;nan
86138;BME280;76796;49.056;15.810;2024-03-17T00:34:33;97201.59;;;7.25;nan
86138;BME280;76796;49.056;15.810;2024-03-17T00:37:01;97197.75;;;7.16;nan
86138;BME280;76796;49.056;15.810;2024-03-17T00:39:30;97194.16;;;7.17;nan
86138;BME280;76796;49.056;15.810;2024-03-17T00:41:57;97191.84;;;7.13;nan
86138;BME280;76796;49.056;15.810;2024-03-17T00:44:32;97187.81;;;7.07;nan
86138;BME280;76796;49.056;15.810;2024-03-17T00:47:04;97194.88;;;7.07;nan
86138;BME280;76796;49.056;15.810;2024-03-17T00:49:31;97197.78;;;7.02;nan
86138;BME280;76796;49.056;15.810;2024-03-17T00:51:57;97192.81;;;6.98;nan
86138;BME280;76796;49.056;15.810;2024-03-17T00:54:22;97199.75;;;6.99;nan
86138;BME280;76796;49.056;15.810;2024-03-17T00:56:48;97204.94;;;6.86;nan
86138;BME280;76796;49.056;15.810;2024-03-17T00:59:14;97210.31;;;6.84;nan
86138;BME280;76796;49.056;15.810;2024-03-17T01:01:46;97206.19;;;6.80;nan
86138;BME280;76796;49.056;15.810;2024-03-17T01:04:13;97211.53;;;6.79;nan
86138;BME280;76796;49.056;15.810;2024-03-17T01:06:38;97202.81;;;6.78;nan
86138;BME280;76796;49.056;15.810;2024-03-17T01:09:06;97199.97;;;6.67;nan
86138;BME280;76796;49.056;15.810;2024-03-17T01:11:39;97201.56;;;6.70;nan
86138;BME280;76796;49.056;15.810;2024-03-17T01:14:05;97199.88;;;6.69;nan
86138;BME280;76796;49.056;15.810;2024-03-17T01:16:37;97205.91;;;6.71;nan
86138;BME280;76796;49.056;15.810;2024-03-17T01:19:11;97198.94;;;6.70;nan
86138;BME280;76796;49.056;15.810;2024-03-17T01:21:37;97189.25;;;6.70;nan
86138;BME280;76796;49.056;15.810;2024-03-17T01:24:03;97206.19;;;6.66;nan
86138;BME280;76796;49.056;15.810;2024-03-17T01:26:30;97204.78;;;6.60;nan
86138;BME280;76796;49.056;15.810;2024-03-17T01:28:56;97197.00;;;6.59;nan
86138;BME280;76796;49.056;15.810;2024-03-17T01:31:22;97207.13;;;6.51;nan
86138;BME280;76796;49.056;15.810;2024-03-17T01:33:47;97206.94;;;6.54;nan
86138;BME280;76796;49.056;15.810;2024-03-17T01:36:20;97211.44;;;6.52;nan
86138;BME280;76796;49.056;15.810;2024-03-17T01:38:45;97208.91;;;6.50;nan
86138;BME280;76796;49.056;15.810;2024-03-17T01:41:11;97207.31;;;6.48;nan
86138;BME280;76796;49.056;15.810;2024-03-17T01:43:39;97206.47;;;6.47;nan
86138;BME280;76796;49.056;15.810;2024-03-17T01:46:05;97207.31;;;6.48;nan
86138;BME280;76796;49.056;15.810;2024-03-17T01:48:37;97206.56;;;6.46;nan
86138;BME280;76796;49.056;15.810;2024-03-17T01:51:03;97207.41;;;6.46;nan
86138;BME280;76796;49.056;15.810;2024-03-17T01:53:35;97217.47;;;6.40;nan
86138;BME280;76796;49.056;15.810;2024-03-17T01:56:00;97210.53;;;6.39;nan
86138;BME280;76796;49.056;15.810;2024-03-17T01:58:32;97201.84;;;6.37;nan
86138;BME280;76796;49.056;15.810;2024-03-17T02:00:58;97210.69;;;6.36;nan
86138;BME280;76796;49.056;15.810;2024-03-17T02:03:24;97212.56;;;6.33;nan
86138;BME280;76796;49.056;15.810;2024-03-17T02:06:05;97224.22;;;6.29;nan
86138;BME280;76796;49.056;15.810;2024-03-17T02:08:51;97219.81;;;6.30;nan
86138;BME280;76796;49.056;15.810;2024-03-17T02:11:29;97213.69;;;6.29;nan
86138;BME280;76796;49.056;15.810;2024-03-17T02:13:56;97211.91;;;6.30;nan
86138;BME280;76796;49.056;15.810;2024-03-17T02:16:22;97216.53;;;6.26;nan
86138;BME280;76796;49.056;15.810;2024-03-17T02:18:49;97216.88;;;6.20;nan
86138;BME280;76796;49.056;15.810;2024-03-17T02:21:15;97217.81;;;6.19;nan
86138;BME280;76796;49.056;15.810;2024-03-17T02:23:42;97213.47;;;6.18;nan
86138;BME280;76796;49.056;15.810;2024-03-17T02:26:08;97216.88;;;6.20;nan
86138;BME280;76796;49.056;15.810;2024-03-17T02:28:41;97218.56;;;6.21;nan
86138;BME280;76796;49.056;15.810;2024-03-17T02:31:08;97211.78;;;6.17;nan
86138;BME280;76796;49.056;15.810;2024-03-17T02:33:35;97222.22;;;6.19;nan
86138;BME280;76796;49.056;15.810;2024-03-17T02:36:03;97225.03;;;6.16;nan
86138;BME280;76796;49.056;15.810;2024-03-17T02:38:36;97218.28;;;6.12;nan
86138;BME280;76796;49.056;15.810;2024-03-17T02:41:21;97221.94;;;6.09;nan
86138;BME280;76796;49.056;15.810;2024-03-17T02:43:54;97216.94;;;6.04;nan
86138;BME280;76796;49.056;15.810;2024-03-17T02:46:26;97217.13;;;6.01;nan
86138;BME280;76796;49.056;15.810;2024-03-17T02:48:53;97216.56;;;5.96;nan
86138;BME280;76796;49.056;15.810;2024-03-17T02:51:21;97215.78;;;5.94;nan
86138;BME280;76796;49.056;15.810;2024-03-17T02:53:48;97219.38;;;5.93;nan
86138;BME280;76796;49.056;15.810;2024-03-17T02:56:15;97220.22;;;5.94;nan
86138;BME280;76796;49.056;15.810;2024-03-17T02:58:42;97216.97;;;5.89;nan
86138;BME280;76796;49.056;15.810;2024-03-17T03:01:15;97212.06;;;5.83;nan
86138;BME280;76796;49.056;15.810;2024-03-17T03:03:42;97217.50;;;5.80;nan
86138;BME280;76796;49.056;15.810;2024-03-17T03:06:07;97213.38;;;5.76;nan
86138;BME280;76796;49.056;15.810;2024-03-17T03:08:41;97227.97;;;5.65;nan
86138;BME280;76796;49.056;15.810;2024-03-17T03:11:09;97234.41;;;5.60;nan
86138;BME280;76796;49.056;15.810;2024-03-17T03:13:41;97226.13;;;5.52;nan
86138;BME280;76796;49.056;15.810;2024-03-17T03:16:08;97223.66;;;5.49;nan
86138;BME280;76796;49.056;15.810;2024-03-17T03:18:41;97222.81;;;5.48;nan
86138;BME280;76796;49.056;15.810;2024-03-17T03:21:09;97208.19;;;5.44;nan
86138;BME280;76796;49.056;15.810;2024-03-17T03:23:34;97209.88;;;5.45;nan
86138;BME280;76796;49.056;15.810;2024-03-17T03:26:03;97215.22;;;5.43;nan
86138;BME280;76796;49.056;15.810;2024-03-17T03:28:33;97219.63;;;5.43;nan
86138;BME280;76796;49.056;15.810;2024-03-17T03:30:59;97223.19;;;5.42;nan
86138;BME280;76796;49.056;15.810;2024-03-17T03:33:25;97224.88;;;5.43;nan
86138;BME280;76796;49.056;15.810;2024-03-17T03:35:58;97229.28;;;5.42;nan
86138;BME280;76796;49.056;15.810;2024-03-17T03:38:25;97234.72;;;5.39;nan
86138;BME280;76796;49.056;15.810;2024-03-17T03:40:50;97243.44;;;5.40;nan
86138;BME280;76796;49.056;15.810;2024-03-17T03:43:18;97235.56;;;5.40;nan
86138;BME280;76796;49.056;15.810;2024-03-17T03:45:43;97233.06;;;5.37;nan
86138;BME280;76796;49.056;15.810;2024-03-17T03:48:22;97236.41;;;5.40;nan
86138;BME280;76796;49.056;15.810;2024-03-17T03:50:48;97228.53;;;5.40;nan
86138;BME280;76796;49.056;15.810;2024-03-17T03:53:24;97229.88;;;5.32;nan
86138;BME280;76796;49.056;15.810;2024-03-17T03:55:49;97226.66;;;5.27;nan
86138;BME280;76796;49.056;15.810;2024-03-17T03:58:15;97228.44;;;5.26;nan
86138;BME280;76796;49.056;15.810;2024-03-17T04:00:41;97230.06;;;5.29;nan
86138;BME280;76796;49.056;15.810;2024-03-17T04:03:07;97224.97;;;5.26;nan
86138;BME280;76796;49.056;15.810;2024-03-17T04:05:34;97229.03;;;5.31;nan
86138;BME280;76796;49.056;15.810;2024-03-17T04:08:00;97225.56;;;5.31;nan
86138;BME280;76796;49.056;15.810;2024-03-17T04:10:33;97232.59;;;5.30;nan
86138;BME280;76796;49.056;15.810;2024-03-17T04:12:59;97232.84;;;5.26;nan
86138;BME280;76796;49.056;15.810;2024-03-17T04:15:24;97228.53;;;5.25;nan
86138;BME280;76796;49.056;15.810;2024-03-17T04:17:50;97226.41;;;5.16;nan
86138;BME280;76796;49.056;15.810;2024-03-17T04:20:16;97231.66;;;5.16;nan
86138;BME280;76796;49.056;15.810;2024-03-17T04:22:44;97230.72;;;5.17;nan
86138;BME280;76796;49.056;15.810;2024-03-17T04:25:11;97233.44;;;5.15;nan
86138;BME280;76796;49.056;15.810;2024-03-17T04:27:44;97230.31;;;5.08;nan
86138;BME280;76796;49.056;15.810;2024-03-17T04:30:09;97235.31;;;5.13;nan
86138;BME280;76796;49.056;15.810;2024-03-17T04:32:37;97239.63;;;5.14;nan
86138;BME280;76796;49.056;15.810;2024-03-17T04:35:04;97230.22;;;5.10;nan
86138;BME280;76796;49.056;15.810;2024-03-17T04:37:30;97233.78;;;5.09;nan
86138;BME280;76796;49.056;15.810;2024-03-17T04:39:56;97243.44;;;5.08;nan
86138;BME280;76796;49.056;15.810;2024-03-17T04:42:23;97237.44;;;5.06;nan
86138;BME280;76796;49.056;15.810;2024-03-17T04:44:55;97249.63;;;5.07;nan
86138;BME280;76796;49.056;15.810;2024-03-17T04:47:23;97246.25;;;5.05;nan
86138;BME280;76796;49.056;15.810;2024-03-17T04:49:55;97253.31;;;5.03;nan
86138;BME280;76796;49.056;15.810;2024-03-17T04:52:22;97256.88;;;5.02;nan
86138;BME280;76796;49.056;15.810;2024-03-17T04:54:48;97257.81;;;5.01;nan
86138;BME280;76796;49.056;15.810;2024-03-17T04:57:14;97257.38;;;4.93;nan
86138;BME280;76796;49.056;15.810;2024-03-17T04:59:39;97259.44;;;4.88;nan
86138;BME280;76796;49.056;15.810;2024-03-17T05:02:12;97258.88;;;4.81;nan
86138;BME280;76796;49.056;15.810;2024-03-17T05:04:37;97252.13;;;4.77;nan
86138;BME280;76796;49.056;15.810;2024-03-17T05:07:03;97255.59;;;4.78;nan
86138;BME280;76796;49.056;15.810;2024-03-17T05:09:31;97256.69;;;4.74;nan
86138;BME280;76796;49.056;15.810;2024-03-17T05:11:57;97261.00;;;4.75;nan
86138;BME280;76796;49.056;15.810;2024-03-17T05:14:22;97260.06;;;4.76;nan
86138;BME280;76796;49.056;15.810;2024-03-17T05:16:49;97262.53;;;4.79;nan
86138;BME280;76796;49.056;15.810;2024-03-17T05:19:22;97268.53;;;4.81;nan
86138;BME280;76796;49.056;15.810;2024-03-17T05:21:49;97269.47;;;4.80;nan
86138;BME280;76796;49.056;15.810;2024-03-17T05:24:14;97264.13;;;4.81;nan
86138;BME280;76796;49.056;15.810;2024-03-17T05:26:40;97267.59;;;4.82;nan
86138;BME280;76796;49.056;15.810;2024-03-17T05:29:11;97286.13;;;4.79;nan
86138;BME280;76796;49.056;15.810;2024-03-17T05:31:37;97281.81;;;4.78;nan
86138;BME280;76796;49.056;15.810;2024-03-17T05:34:08;97274.88;;;4.77;nan
86138;BME280;76796;49.056;15.810;2024-03-17T05:36:42;97278.25;;;4.79;nan
86138;BME280;76796;49.056;15.810;2024-03-17T05:39:07;97278.25;;;4.79;nan
86138;BME280;76796;49.056;15.810;2024-03-17T05:41:33;97288.75;;;4.79;nan
86138;BME280;76796;49.056;15.810;2024-03-17T05:44:01;97282.75;;;4.77;nan
86138;BME280;76796;49.056;15.810;2024-03-17T05:46:35;97289.00;;;4.74;nan
86138;BME280;76796;49.056;15.810;2024-03-17T05:49:01;97291.00;;;4.69;nan
86138;BME280;76796;49.056;15.810;2024-03-17T05:51:31;97290.16;;;4.69;nan
86138;BME280;76796;49.056;15.810;2024-03-17T05:54:03;97286.78;;;4.67;nan
86138;BME280;76796;49.056;15.810;2024-03-17T05:56:33;97288.56;;;4.66;nan
86138;BME280;76796;49.056;15.810;2024-03-17T05:59:00;97286.78;;;4.67;nan
86138;BME280;76796;49.056;15.810;2024-03-17T06:01:28;97292.78;;;4.69;nan
86138;BME280;76796;49.056;15.810;2024-03-17T06:03:54;97295.97;;;4.58;nan
86138;BME280;76796;49.056;15.810;2024-03-17T06:06:19;97292.78;;;4.69;nan
86138;BME280;76796;49.056;15.810;2024-03-17T06:08:46;97295.25;;;4.72;nan
86138;BME280;76796;49.056;15.810;2024-03-17T06:11:18;97297.81;;;4.73;nan
86138;BME280;76796;49.056;15.810;2024-03-17T06:13:43;97298.66;;;4.74;nan
86138;BME280;76796;49.056;15.810;2024-03-17T06:16:09;97303.13;;;4.72;nan
86138;BME280;76796;49.056;15.810;2024-03-17T06:18:35;97301.94;;;4.77;nan
86138;BME280;76796;49.056;15.810;2024-03-17T06:21:00;97293.25;;;4.77;nan
86138;BME280;76796;49.056;15.810;2024-03-17T06:23:26;97305.25;;;4.81;nan
86138;BME280;76796;49.056;15.810;2024-03-17T06:25:53;97292.06;;;4.82;nan
86138;BME280;76796;49.056;15.810;2024-03-17T06:28:28;97290.09;;;4.86;nan
86138;BME280;76796;49.056;15.810;2024-03-17T06:30:59;97293.09;;;4.96;nan
86138;BME280;76796;49.056;15.810;2024-03-17T06:33:26;97296.31;;;5.01;nan
86138;BME280;76796;49.056;15.810;2024-03-17T06:35:53;97293.28;;;5.08;nan
86138;BME280;76796;49.056;15.810;2024-03-17T06:38:19;97299.97;;;5.14;nan
86138;BME280;76796;49.056;15.810;2024-03-17T06:40:48;97301.41;;;5.20;nan
86138;BME280;76796;49.056;15.810;2024-03-17T06:43:15;97308.03;;;5.27;nan
86138;BME280;76796;49.056;15.810;2024-03-17T06:46:00;97305.75;;;5.36;nan
86138;BME280;76796;49.056;15.810;2024-03-17T06:48:39;97307.38;;;5.39;nan
86138;BME280;76796;49.056;15.810;2024-03-17T06:51:05;97314.16;;;5.43;nan
86138;BME280;76796;49.056;15.810;2024-03-17T06:53:31;97310.41;;;5.47;nan
86138;BME280;76796;49.056;15.810;2024-03-17T06:55:58;97311.75;;;5.54;nan
86138;BME280;76796;49.056;15.810;2024-03-17T06:58:26;97309.56;;;5.62;nan
86138;BME280;76796;49.056;15.810;2024-03-17T07:01:00;97323.28;;;5.67;nan
86138;BME280;76796;49.056;15.810;2024-03-17T07:03:31;97329.72;;;5.78;nan
86138;BME280;76796;49.056;15.810;2024-03-17T07:05:59;97319.69;;;5.84;nan
86138;BME280;76796;49.056;15.810;2024-03-17T07:08:31;97329.81;;;5.92;nan
86138;BME280;76796;49.056;15.810;2024-03-17T07:11:04;97326.84;;;5.98;nan
86138;BME280;76796;49.056;15.810;2024-03-17T07:13:37;97324.63;;;6.06;nan
86138;BME280;76796;49.056;15.810;2024-03-17T07:16:10;97328.59;;;6.13;nan
86138;BME280;76796;49.056;15.810;2024-03-17T07:18:36;97325.78;;;6.16;nan
86138;BME280;76796;49.056;15.810;2024-03-17T07:21:03;97332.38;;;6.23;nan
86138;BME280;76796;49.056;15.810;2024-03-17T07:23:31;97332.88;;;6.30;nan
86138;BME280;76796;49.056;15.810;2024-03-17T07:25:59;97330.72;;;6.37;nan
86138;BME280;76796;49.056;15.810;2024-03-17T07:28:26;97336.38;;;6.45;nan
86138;BME280;76796;49.056;15.810;2024-03-17T07:30:56;97321.91;;;6.52;nan
86138;BME280;76796;49.056;15.810;2024-03-17T07:33:29;97333.69;;;6.60;nan
86138;BME280;76796;49.056;15.810;2024-03-17T07:35:56;97330.59;;;6.68;nan
86138;BME280;76796;49.056;15.810;2024-03-17T07:38:26;97333.81;;;6.73;nan
86138;BME280;76796;49.056;15.810;2024-03-17T07:41:00;97337.94;;;6.77;nan
86138;BME280;76796;49.056;15.810;2024-03-17T07:43:28;97335.69;;;6.85;nan
86138;BME280;76796;49.056;15.810;2024-03-17T07:46:04;97335.97;;;6.95;nan
86138;BME280;76796;49.056;15.810;2024-03-17T07:48:53;97336.09;;;7.08;nan
86138;BME280;76796;49.056;15.810;2024-03-17T07:51:18;97332.78;;;7.18;nan
86138;BME280;76796;49.056;15.810;2024-03-17T07:53:45;97334.84;;;7.28;nan
86138;BME280;76796;49.056;15.810;2024-03-17T07:56:13;97337.75;;;7.37;nan
86138;BME280;76796;49.056;15.810;2024-03-17T07:58:42;97332.09;;;7.43;nan
86138;BME280;76796;49.056;15.810;2024-03-17T08:01:13;97337.63;;;7.53;nan
86138;BME280;76796;49.056;15.810;2024-03-17T08:03:41;97337.06;;;7.62;nan
86138;BME280;76796;49.056;15.810;2024-03-17T08:06:16;97344.38;;;7.71;nan
86138;BME280;76796;49.056;15.810;2024-03-17T08:08:41;97337.22;;;7.73;nan
86138;BME280;76796;49.056;15.810;2024-03-17T08:11:07;97335.69;;;7.83;nan
86138;BME280;76796;49.056;15.810;2024-03-17T08:13:34;97328.97;;;7.92;nan
86138;BME280;76796;49.056;15.810;2024-03-17T08:16:02;97333.44;;;8.04;nan
86138;BME280;76796;49.056;15.810;2024-03-17T08:18:31;97338.44;;;8.09;nan
86138;BME280;76796;49.056;15.810;2024-03-17T08:20:57;97325.25;;;8.22;nan
86138;BME280;76796;49.056;15.810;2024-03-17T08:23:34;97329.56;;;8.37;nan
86138;BME280;76796;49.056;15.810;2024-03-17T08:26:03;97330.66;;;8.47;nan
86138;BME280;76796;49.056;15.810;2024-03-17T08:28:30;97325.59;;;8.57;nan
86138;BME280;76796;49.056;15.810;2024-03-17T08:30:57;97336.91;;;8.71;nan
86138;BME280;76796;49.056;15.810;2024-03-17T08:33:24;97335.31;;;8.82;nan
86138;BME280;76796;49.056;15.810;2024-03-17T08:35:57;97336.06;;;8.84;nan
86138;BME280;76796;49.056;15.810;2024-03-17T08:38:27;97330.91;;;8.95;nan
86138;BME280;76796;49.056;15.810;2024-03-17T08:41:10;97324.97;;;9.04;nan
86138;BME280;76796;49.056;15.810;2024-03-17T08:43:36;97331.19;;;9.03;nan
86138;BME280;76796;49.056;15.810;2024-03-17T08:46:07;97328.16;;;9.09;nan
86138;BME280;76796;49.056;15.810;2024-03-17T08:48:48;97325.59;;;9.20;nan
86138;BME280;76796;49.056;15.810;2024-03-17T08:51:13;97333.72;;;9.30;nan
86138;BME280;76796;49.056;15.810;2024-03-17T08:53:39;97331.81;;;9.45;nan
86138;BME280;76796;49.056;15.810;2024-03-17T08:56:12;97327.66;;;9.53;nan
86138;BME280;76796;49.056;15.810;2024-03-17T08:58:38;97323.41;;;9.63;nan
86138;BME280;76796;49.056;15.810;2024-03-17T09:01:07;97315.13;;;9.68;nan
86138;BME280;76796;49.056;15.810;2024-03-17T09:03:35;97317.06;;;9.66;nan
86138;BME280;76796;49.056;15.810;2024-03-17T09:06:01;97318.88;;;9.53;nan
86138;BME280;76796;49.056;15.810;2024-03-17T09:08:29;97330.28;;;9.53;nan
86138;BME280;76796;49.056;15.810;2024-03-17T09:10:55;97319.97;;;9.38;nan
86138;BME280;76796;49.056;15.810;2024-03-17T09:13:29;97330.97;;;9.31;nan
86138;BME280;76796;49.056;15.810;2024-03-17T09:15:57;97323.66;;;9.48;nan
86138;BME280;76796;49.056;15.810;2024-03-17T09:18:26;97313.38;;;9.56;nan
86138;BME280;76796;49.056;15.810;2024-03-17T09:23:21;97314.13;;;9.58;nan
86138;BME280;76796;49.056;15.810;2024-03-17T09:25:55;97316.22;;;9.53;nan
86138;BME280;76796;49.056;15.810;2024-03-17T09:28:21;97303.97;;;9.52;nan
86138;BME280;76796;49.056;15.810;2024-03-17T09:30:56;97310.44;;;9.48;nan
86138;BME280;76796;49.056;15.810;2024-03-17T09:33:23;97315.00;;;9.46;nan
86138;BME280;76796;49.056;15.810;2024-03-17T09:35:56;97315.72;;;9.48;nan
86138;BME280;76796;49.056;15.810;2024-03-17T09:38:22;97305.38;;;9.45;nan
86138;BME280;76796;49.056;15.810;2024-03-17T09:40:49;97306.09;;;9.47;nan
86138;BME280;76796;49.056;15.810;2024-03-17T09:43:22;97305.03;;;9.49;nan
86138;BME280;76796;49.056;15.810;2024-03-17T09:45:49;97303.25;;;9.50;nan
86138;BME280;76796;49.056;15.810;2024-03-17T09:48:22;97307.56;;;9.51;nan
86138;BME280;76796;49.056;15.810;2024-03-17T09:50:59;97301.44;;;9.50;nan
86138;BME280;76796;49.056;15.810;2024-03-17T09:53:31;97296.88;;;9.52;nan
86138;BME280;76796;49.056;15.810;2024-03-17T09:56:05;97297.63;;;9.54;nan
86138;BME280;76796;49.056;15.810;2024-03-17T09:58:34;97301.09;;;9.55;nan
86138;BME280;76796;49.056;15.810;2024-03-17T10:01:00;97294.97;;;9.54;nan
86138;BME280;76796;49.056;15.810;2024-03-17T10:03:42;97295.72;;;9.56;nan
86138;BME280;76796;49.056;15.810;2024-03-17T10:06:09;97291.50;;;9.54;nan
86138;BME280;76796;49.056;15.810;2024-03-17T10:11:17;97277.78;;;9.49;nan
86138;BME280;76796;49.056;15.810;2024-03-17T10:13:44;97286.53;;;9.49;nan
86138;BME280;76796;49.056;15.810;2024-03-17T10:16:28;97283.78;;;9.51;nan
86138;BME280;76796;49.056;15.810;2024-03-17T10:19:25;97286.44;;;9.51;nan
86138;BME280;76796;49.056;15.810;2024-03-17T10:21:59;97283.34;;;9.57;nan
86138;BME280;76796;49.056;15.810;2024-03-17T10:24:32;97280.06;;;9.53;nan
86138;BME280;76796;49.056;15.810;2024-03-17T10:27:02;97273.63;;;9.57;nan
86138;BME280;76796;49.056;15.810;2024-03-17T10:29:32;97272.75;;;9.57;nan
86138;BME280;76796;49.056;15.810;2024-03-17T10:32:15;97268.22;;;9.59;nan
86138;BME280;76796;49.056;15.810;2024-03-17T10:34:50;97266.53;;;9.58;nan
86138;BME280;76796;49.056;15.810;2024-03-17T10:37:18;97263.78;;;9.59;nan
86138;BME280;76796;49.056;15.810;2024-03-17T10:39:53;97256.06;;;9.56;nan
86138;BME280;76796;49.056;15.810;2024-03-17T10:42:28;97247.81;;;9.61;nan
86138;BME280;76796;49.056;15.810;2024-03-17T10:44:54;97266.53;;;9.58;nan
86138;BME280;76796;49.056;15.810;2024-03-17T10:47:28;97254.66;;;9.63;nan
86138;BME280;76796;49.056;15.810;2024-03-17T10:50:16;97251.44;;;9.71;nan
86138;BME280;76796;49.056;15.810;2024-03-17T10:52:45;97247.75;;;9.74;nan
86138;BME280;76796;49.056;15.810;2024-03-17T10:57:46;97243.13;;;9.88;nan
86138;BME280;76796;49.056;15.810;2024-03-17T11:00:18;97240.78;;;9.97;nan
86138;BME280;76796;49.056;15.810;2024-03-17T11:02:45;97247.63;;;9.99;nan
86138;BME280;76796;49.056;15.810;2024-03-17T11:05:27;97243.66;;;9.93;nan
86138;BME280;76796;49.056;15.810;2024-03-17T11:08:00;97236.78;;;9.91;nan
86138;BME280;76796;49.056;15.810;2024-03-17T11:10:33;97244.38;;;9.95;nan
86138;BME280;76796;49.056;15.810;2024-03-17T11:13:01;97243.91;;;10.02;nan
86138;BME280;76796;49.056;15.810;2024-03-17T11:20:43;97221.78;;;10.03;nan
86138;BME280;76796;49.056;15.810;2024-03-17T11:23:09;97226.13;;;10.04;nan
86138;BME280;76796;49.056;15.810;2024-03-17T11:28:02;97224.44;;;10.03;nan
86138;BME280;76796;49.056;15.810;2024-03-17T11:47:02;97213.50;;;10.31;nan
86138;BME280;76796;49.056;15.810;2024-03-17T11:49:44;97199.06;;;10.35;nan
86138;BME280;76796;49.056;15.810;2024-03-17T11:52:23;97199.53;;;10.29;nan
86138;BME280;76796;49.056;15.810;2024-03-17T11:54:58;97187.03;;;10.31;nan
86138;BME280;76796;49.056;15.810;2024-03-17T11:57:31;97191.22;;;10.34;nan
86138;BME280;76796;49.056;15.810;2024-03-17T11:59:58;97186.78;;;10.34;nan
86138;BME280;76796;49.056;15.810;2024-03-17T12:02:30;97190.66;;;10.41;nan
86138;BME280;76796;49.056;15.810;2024-03-17T12:04:58;97230.97;;;10.56;nan
86138;BME280;76796;49.056;15.810;2024-03-17T12:07:42;97185.09;;;10.33;nan
86138;BME280;76796;49.056;15.810;2024-03-17T12:10:10;97178.97;;;10.33;nan
86138;BME280;76796;49.056;15.810;2024-03-17T12:12:41;97179.81;;;10.33;nan
86138;BME280;76796;49.056;15.810;2024-03-17T12:15:18;97176.91;;;10.36;nan
86138;BME280;76796;49.056;15.810;2024-03-17T12:17:52;97175.22;;;10.35;nan
86138;BME280;76796;49.056;15.810;2024-03-17T12:20:21;97173.44;;;10.36;nan
86138;BME280;76796;49.056;15.810;2024-03-17T12:22:53;97161.28;;;10.33;nan
86138;BME280;76796;49.056;15.810;2024-03-17T12:25:21;97163.94;;;10.33;nan
86138;BME280;76796;49.056;15.810;2024-03-17T12:27:48;97158.38;;;10.36;nan
86138;BME280;76796;49.056;15.810;2024-03-17T12:30:15;97164.66;;;10.35;nan
86138;BME280;76796;49.056;15.810;2024-03-17T12:32:43;97158.38;;;10.36;nan
86138;BME280;76796;49.056;15.810;2024-03-17T12:35:15;97149.59;;;10.36;nan
86138;BME280;76796;49.056;15.810;2024-03-17T12:37:47;97149.47;;;10.37;nan
86138;BME280;76796;49.056;15.810;2024-03-17T12:40:21;97141.41;;;10.39;nan
86138;BME280;76796;49.056;15.810;2024-03-17T12:42:49;97150.97;;;10.41;nan
86138;BME280;76796;49.056;15.810;2024-03-17T12:45:25;97153.47;;;10.43;nan
86138;BME280;76796;49.056;15.810;2024-03-17T12:47:55;97149.63;;;10.47;nan
86138;BME280;76796;49.056;15.810;2024-03-17T12:50:30;97143.25;;;10.49;nan
86138;BME280;76796;49.056;15.810;2024-03-17T12:53:16;97135.06;;;10.52;nan
86138;BME280;76796;49.056;15.810;2024-03-17T12:55:55;97135.53;;;10.58;nan
86138;BME280;76796;49.056;15.810;2024-03-17T12:58:42;97137.84;;;10.62;nan
86138;BME280;76796;49.056;15.810;2024-03-17T13:01:26;97123.25;;;10.68;nan
86138;BME280;76796;49.056;15.810;2024-03-17T13:03:53;97127.84;;;10.66;nan
86138;BME280;76796;49.056;15.810;2024-03-17T13:06:23;97121.47;;;10.68;nan
86138;BME280;76796;49.056;15.810;2024-03-17T13:08:52;97120.97;;;10.74;nan
86138;BME280;76796;49.056;15.810;2024-03-17T13:11:24;97125.19;;;10.77;nan
86138;BME280;76796;49.056;15.810;2024-03-17T13:13:50;97115.44;;;10.77;nan
86138;BME280;76796;49.056;15.810;2024-03-17T13:16:16;97120.63;;;10.79;nan
86138;BME280;76796;49.056;15.810;2024-03-17T13:18:45;97114.59;;;10.77;nan
86138;BME280;76796;49.056;15.810;2024-03-17T13:21:11;97109.31;;;10.77;nan
86138;BME280;76796;49.056;15.810;2024-03-17T13:23:36;97114.47;;;10.78;nan
86138;BME280;76796;49.056;15.810;2024-03-17T13:26:02;97102.91;;;10.68;nan
86138;BME280;76796;49.056;15.810;2024-03-17T13:28:34;97104.97;;;10.76;nan
86138;BME280;76796;49.056;15.810;2024-03-17T13:31:00;97095.44;;;10.73;nan
86138;BME280;76796;49.056;15.810;2024-03-17T13:33:26;97095.31;;;10.75;nan
86138;BME280;76796;49.056;15.810;2024-03-17T13:35:52;97091.00;;;10.74;nan
86138;BME280;76796;49.056;15.810;2024-03-17T13:38:18;97095.31;;;10.75;nan
86138;BME280;76796;49.056;15.810;2024-03-17T13:40:50;97084.84;;;10.73;nan
86138;BME280;76796;49.056;15.810;2024-03-17T13:43:16;97088.34;;;10.74;nan
86138;BME280;76796;49.056;15.810;2024-03-17T13:45:50;97078.00;;;10.71;nan
86138;BME280;76796;49.056;15.810;2024-03-17T13:48:22;97080.41;;;10.74;nan
86138;BME280;76796;49.056;15.810;2024-03-17T13:50:49;97070.19;;;10.69;nan
86138;BME280;76796;49.056;15.810;2024-03-17T13:53:15;97077.53;;;10.66;nan
86138;BME280;76796;49.056;15.810;2024-03-17T13:55:43;97071.78;;;10.61;nan
86138;BME280;76796;49.056;15.810;2024-03-17T13:58:08;97069.13;;;10.61;nan
86138;BME280;76796;49.056;15.810;2024-03-17T14:00:35;97074.53;;;10.59;nan
86138;BME280;76796;49.056;15.810;2024-03-17T14:03:09;97078.50;;;10.53;nan